sensor_id;sensor_type;location;lat;lon;timestamp;pressure;altitude;pressure_sealevel;temperature;humidity
55576;BME280;41437;45.478;9.116;2023-03-01T00:02:21;100222.47;;;3.97;100.00
55576;BME280;41437;45.478;9.116;2023-03-01T00:05:22;100214.28;;;3.97;100.00
55576;BME280;41437;45.478;9.116;2023-03-01T00:08:24;100219.53;;;4.05;100.00
55576;BME280;41437;45.478;9.116;2023-03-01T00:11:27;100218.69;;;4.04;100.00
55576;BME280;41437;45.478;9.116;2023-03-01T00:14:29;100211.75;;;4.09;100.00
55576;BME280;41437;45.478;9.116;2023-03-01T00:17:31;100206.31;;;4.09;100.00
55576;BME280;41437;45.478;9.116;2023-03-01T00:20:33;100209.69;;;4.11;100.00
55576;BME280;41437;45.478;9.116;2023-03-01T00:23:36;100212.41;;;4.11;100.00
55576;BME280;41437;45.478;9.116;2023-03-01T00:26:37;100203.56;;;4.09;100.00
55576;BME280;41437;45.478;9.116;2023-03-01T00:29:39;100201.69;;;4.09;100.00
55576;BME280;41437;45.478;9.116;2023-03-01T00:32:42;100202.09;;;4.13;100.00
55576;BME280;41437;45.478;9.116;2023-03-01T00:35:44;100199.59;;;4.18;100.00
55576;BME280;41437;45.478;9.116;2023-03-01T00:38:46;100197.91;;;4.17;100.00
55576;BME280;41437;45.478;9.116;2023-03-01T00:41:48;100204.22;;;4.11;100.00
55576;BME280;41437;45.478;9.116;2023-03-01T00:44:49;100196.88;;;4.11;99.57
55576;BME280;41437;45.478;9.116;2023-03-01T00:47:54;100205.06;;;4.11;100.00
55576;BME280;41437;45.478;9.116;2023-03-01T00:50:56;100200.88;;;4.15;99.33
55576;BME280;41437;45.478;9.116;2023-03-01T00:53:58;100195.22;;;4.10;100.00
55576;BME280;41437;45.478;9.116;2023-03-01T00:57:00;100185.53;;;4.08;100.00
55576;BME280;41437;45.478;9.116;2023-03-01T01:00:03;100178.84;;;4.10;100.00
55576;BME280;41437;45.478;9.116;2023-03-01T01:03:08;100169.81;;;4.10;99.93
55576;BME280;41437;45.478;9.116;2023-03-01T01:06:14;100163.94;;;3.99;100.00
55576;BME280;41437;45.478;9.116;2023-03-01T01:09:17;100154.94;;;3.99;100.00
55576;BME280;41437;45.478;9.116;2023-03-01T01:12:18;100159.31;;;4.00;100.00
55576;BME280;41437;45.478;9.116;2023-03-01T01:15:20;100154.94;;;4.06;100.00
55576;BME280;41437;45.478;9.116;2023-03-01T01:18:23;100155.75;;;4.13;100.00
55576;BME280;41437;45.478;9.116;2023-03-01T01:21:25;100149.25;;;4.00;100.00
55576;BME280;41437;45.478;9.116;2023-03-01T01:24:27;100144.66;;;4.08;100.00
55576;BME280;41437;45.478;9.116;2023-03-01T01:27:29;100130.38;;;3.99;100.00
55576;BME280;41437;45.478;9.116;2023-03-01T01:30:34;100130.41;;;4.06;100.00
55576;BME280;41437;45.478;9.116;2023-03-01T01:33:37;100128.09;;;4.02;100.00
55576;BME280;41437;45.478;9.116;2023-03-01T01:36:39;100119.06;;;3.89;100.00
55576;BME280;41437;45.478;9.116;2023-03-01T01:39:40;100115.06;;;3.91;100.00
55576;BME280;41437;45.478;9.116;2023-03-01T01:42:45;100114.66;;;4.01;100.00
55576;BME280;41437;45.478;9.116;2023-03-01T01:45:47;100122.59;;;4.09;100.00
55576;BME280;41437;45.478;9.116;2023-03-01T01:48:54;100111.09;;;4.00;100.00
55576;BME280;41437;45.478;9.116;2023-03-01T01:52:02;100105.63;;;3.87;100.00
55576;BME280;41437;45.478;9.116;2023-03-01T01:55:09;100098.53;;;3.86;100.00
55576;BME280;41437;45.478;9.116;2023-03-01T01:58:15;100098.09;;;3.96;100.00
55576;BME280;41437;45.478;9.116;2023-03-01T02:01:20;100096.41;;;3.95;100.00
55576;BME280;41437;45.478;9.116;2023-03-01T02:04:23;100091.63;;;3.84;100.00
55576;BME280;41437;45.478;9.116;2023-03-01T02:07:25;100088.66;;;3.78;100.00
55576;BME280;41437;45.478;9.116;2023-03-01T02:10:28;100094.53;;;3.82;100.00
55576;BME280;41437;45.478;9.116;2023-03-01T02:13:30;100091.41;;;3.92;100.00
55576;BME280;41437;45.478;9.116;2023-03-01T02:16:32;100079.88;;;3.96;100.00
55576;BME280;41437;45.478;9.116;2023-03-01T02:19:50;100082.16;;;3.99;100.00
55576;BME280;41437;45.478;9.116;2023-03-01T02:22:53;100075.44;;;4.02;100.00
55576;BME280;41437;45.478;9.116;2023-03-01T02:26:00;100071.25;;;3.99;100.00
55576;BME280;41437;45.478;9.116;2023-03-01T02:29:04;100074.63;;;4.01;100.00
55576;BME280;41437;45.478;9.116;2023-03-01T02:32:07;100061.44;;;3.92;100.00
55576;BME280;41437;45.478;9.116;2023-03-01T02:35:13;100065.38;;;3.83;100.00
55576;BME280;41437;45.478;9.116;2023-03-01T02:38:16;100059.09;;;3.89;100.00
55576;BME280;41437;45.478;9.116;2023-03-01T02:41:19;100062.03;;;3.87;100.00
55576;BME280;41437;45.478;9.116;2023-03-01T02:44:23;100063.09;;;3.93;100.00
55576;BME280;41437;45.478;9.116;2023-03-01T02:47:24;100054.69;;;3.94;100.00
55576;BME280;41437;45.478;9.116;2023-03-01T02:50:45;100047.38;;;3.88;100.00
55576;BME280;41437;45.478;9.116;2023-03-01T02:53:53;100050.72;;;3.90;100.00
55576;BME280;41437;45.478;9.116;2023-03-01T02:56:57;100047.78;;;3.85;100.00
55576;BME280;41437;45.478;9.116;2023-03-01T03:00:03;100046.13;;;3.84;100.00
55576;BME280;41437;45.478;9.116;2023-03-01T03:03:07;100038.34;;;3.81;100.00
55576;BME280;41437;45.478;9.116;2023-03-01T03:06:09;100040.69;;;3.71;100.00
55576;BME280;41437;45.478;9.116;2023-03-01T03:09:11;100038.59;;;3.53;100.00
55576;BME280;41437;45.478;9.116;2023-03-01T03:12:13;100031.91;;;3.36;100.00
55576;BME280;41437;45.478;9.116;2023-03-01T03:15:16;100028.75;;;3.32;100.00
55576;BME280;41437;45.478;9.116;2023-03-01T03:18:19;100026.84;;;3.26;100.00
55576;BME280;41437;45.478;9.116;2023-03-01T03:21:21;100020.38;;;3.27;100.00
55576;BME280;41437;45.478;9.116;2023-03-01T03:24:22;100025.59;;;3.28;100.00
55576;BME280;41437;45.478;9.116;2023-03-01T03:27:24;100025.19;;;3.25;100.00
55576;BME280;41437;45.478;9.116;2023-03-01T03:30:29;100025.78;;;3.07;100.00
55576;BME280;41437;45.478;9.116;2023-03-01T03:33:34;100022.44;;;2.98;100.00
55576;BME280;41437;45.478;9.116;2023-03-01T03:36:35;100017.19;;;2.90;100.00
55576;BME280;41437;45.478;9.116;2023-03-01T03:39:37;100026.00;;;2.92;100.00
55576;BME280;41437;45.478;9.116;2023-03-01T03:42:38;100015.91;;;2.80;100.00
55576;BME280;41437;45.478;9.116;2023-03-01T03:45:43;100012.56;;;2.77;100.00
55576;BME280;41437;45.478;9.116;2023-03-01T03:48:45;100019.69;;;2.85;100.00
55576;BME280;41437;45.478;9.116;2023-03-01T03:51:47;100017.81;;;2.86;100.00
55576;BME280;41437;45.478;9.116;2023-03-01T03:54:48;100022.81;;;2.82;100.00
55576;BME280;41437;45.478;9.116;2023-03-01T03:57:49;100014.22;;;2.78;100.00
55576;BME280;41437;45.478;9.116;2023-03-01T04:00:56;100015.06;;;2.72;100.00
55576;BME280;41437;45.478;9.116;2023-03-01T04:03:58;100010.84;;;2.70;100.00
55576;BME280;41437;45.478;9.116;2023-03-01T04:07:04;100008.13;;;2.70;100.00
55576;BME280;41437;45.478;9.116;2023-03-01T04:10:07;100013.78;;;2.68;100.00
55576;BME280;41437;45.478;9.116;2023-03-01T04:13:10;100003.31;;;2.59;100.00
55576;BME280;41437;45.478;9.116;2023-03-01T04:16:13;100004.13;;;2.53;100.00
55576;BME280;41437;45.478;9.116;2023-03-01T04:19:18;100000.53;;;2.52;100.00
55576;BME280;41437;45.478;9.116;2023-03-01T04:22:19;99999.09;;;2.49;100.00
55576;BME280;41437;45.478;9.116;2023-03-01T04:25:21;99999.31;;;2.55;100.00
55576;BME280;41437;45.478;9.116;2023-03-01T04:28:24;99994.72;;;2.48;100.00
55576;BME280;41437;45.478;9.116;2023-03-01T04:31:27;99990.69;;;2.38;100.00
55576;BME280;41437;45.478;9.116;2023-03-01T04:34:28;99990.84;;;2.30;100.00
55576;BME280;41437;45.478;9.116;2023-03-01T04:37:30;99983.75;;;2.29;100.00
55576;BME280;41437;45.478;9.116;2023-03-01T04:40:32;99982.09;;;2.34;100.00
55576;BME280;41437;45.478;9.116;2023-03-01T04:43:34;99988.78;;;2.38;100.00
55576;BME280;41437;45.478;9.116;2023-03-01T04:46:37;99990.72;;;2.44;100.00
55576;BME280;41437;45.478;9.116;2023-03-01T04:49:38;99987.78;;;2.46;100.00
55576;BME280;41437;45.478;9.116;2023-03-01T04:52:40;99980.66;;;2.45;100.00
55576;BME280;41437;45.478;9.116;2023-03-01T04:55:41;99988.63;;;2.46;100.00
55576;BME280;41437;45.478;9.116;2023-03-01T04:58:44;99986.94;;;2.45;100.00
55576;BME280;41437;45.478;9.116;2023-03-01T05:01:46;99992.16;;;2.40;100.00
55576;BME280;41437;45.478;9.116;2023-03-01T05:04:48;99987.75;;;2.39;100.00
55576;BME280;41437;45.478;9.116;2023-03-01T05:07:49;99987.53;;;2.34;100.00
55576;BME280;41437;45.478;9.116;2023-03-01T05:10:52;99991.50;;;2.32;100.00
55576;BME280;41437;45.478;9.116;2023-03-01T05:13:54;99991.81;;;2.09;100.00
55576;BME280;41437;45.478;9.116;2023-03-01T05:16:57;99986.19;;;2.10;100.00
55576;BME280;41437;45.478;9.116;2023-03-01T05:20:04;99986.38;;;2.09;100.00
55576;BME280;41437;45.478;9.116;2023-03-01T05:23:09;99992.03;;;2.07;100.00
55576;BME280;41437;45.478;9.116;2023-03-01T05:26:10;99991.81;;;2.09;100.00
55576;BME280;41437;45.478;9.116;2023-03-01T05:29:12;99982.09;;;1.86;100.00
55576;BME280;41437;45.478;9.116;2023-03-01T05:32:15;99984.13;;;1.77;100.00
55576;BME280;41437;45.478;9.116;2023-03-01T05:35:17;99988.78;;;1.84;100.00
55576;BME280;41437;45.478;9.116;2023-03-01T05:38:20;99983.56;;;1.89;100.00
55576;BME280;41437;45.478;9.116;2023-03-01T05:41:22;99995.75;;;1.99;100.00
55576;BME280;41437;45.478;9.116;2023-03-01T05:44:24;99990.97;;;2.01;100.00
55576;BME280;41437;45.478;9.116;2023-03-01T05:47:28;99991.78;;;2.02;100.00
55576;BME280;41437;45.478;9.116;2023-03-01T05:50:33;99986.78;;;2.06;100.00
55576;BME280;41437;45.478;9.116;2023-03-01T05:53:35;99986.25;;;1.82;100.00
55576;BME280;41437;45.478;9.116;2023-03-01T05:56:37;99989.63;;;1.84;100.00
55576;BME280;41437;45.478;9.116;2023-03-01T05:59:38;100003.34;;;1.76;100.00
55576;BME280;41437;45.478;9.116;2023-03-01T06:02:41;99987.94;;;1.83;100.00
55576;BME280;41437;45.478;9.116;2023-03-01T06:05:43;99996.47;;;1.80;100.00
55576;BME280;41437;45.478;9.116;2023-03-01T06:08:47;99990.84;;;1.82;100.00
55576;BME280;41437;45.478;9.116;2023-03-01T06:11:49;99998.00;;;1.89;100.00
55576;BME280;41437;45.478;9.116;2023-03-01T06:14:52;99994.06;;;1.98;100.00
55576;BME280;41437;45.478;9.116;2023-03-01T06:17:55;99998.09;;;2.09;100.00
55576;BME280;41437;45.478;9.116;2023-03-01T06:20:57;99997.50;;;2.14;100.00
55576;BME280;41437;45.478;9.116;2023-03-01T06:23:59;100004.22;;;2.18;100.00
55576;BME280;41437;45.478;9.116;2023-03-01T06:27:00;100011.47;;;2.11;100.00
55576;BME280;41437;45.478;9.116;2023-03-01T06:30:02;100007.31;;;2.15;100.00
55576;BME280;41437;45.478;9.116;2023-03-01T06:33:05;100008.22;;;2.29;100.00
55576;BME280;41437;45.478;9.116;2023-03-01T06:36:07;100006.59;;;2.41;100.00
55576;BME280;41437;45.478;9.116;2023-03-01T06:39:10;100012.69;;;2.56;100.00
55576;BME280;41437;45.478;9.116;2023-03-01T06:42:11;100018.38;;;2.61;100.00
55576;BME280;41437;45.478;9.116;2023-03-01T06:45:13;100013.81;;;2.75;100.00
55576;BME280;41437;45.478;9.116;2023-03-01T06:48:16;100009.66;;;2.92;100.00
55576;BME280;41437;45.478;9.116;2023-03-01T06:51:17;100013.00;;;3.08;100.00
55576;BME280;41437;45.478;9.116;2023-03-01T06:54:19;100010.50;;;3.26;100.00
55576;BME280;41437;45.478;9.116;2023-03-01T06:57:22;100021.00;;;3.42;100.00
55576;BME280;41437;45.478;9.116;2023-03-01T07:00:24;100023.31;;;3.45;100.00
55576;BME280;41437;45.478;9.116;2023-03-01T07:03:27;100019.31;;;3.41;100.00
55576;BME280;41437;45.478;9.116;2023-03-01T07:06:31;100017.66;;;3.40;100.00
55576;BME280;41437;45.478;9.116;2023-03-01T07:09:33;100022.88;;;3.62;100.00
55576;BME280;41437;45.478;9.116;2023-03-01T07:12:35;100025.38;;;3.83;100.00
55576;BME280;41437;45.478;9.116;2023-03-01T07:15:36;100022.41;;;3.78;100.00
55576;BME280;41437;45.478;9.116;2023-03-01T07:18:39;100027.19;;;3.96;100.00
55576;BME280;41437;45.478;9.116;2023-03-01T07:21:40;100018.84;;;3.97;100.00
55576;BME280;41437;45.478;9.116;2023-03-01T07:24:45;100022.81;;;4.01;100.00
55576;BME280;41437;45.478;9.116;2023-03-01T07:27:49;100032.03;;;3.87;100.00
55576;BME280;41437;45.478;9.116;2023-03-01T07:30:52;100017.13;;;4.03;100.00
55576;BME280;41437;45.478;9.116;2023-03-01T07:33:55;100022.19;;;3.86;100.00
55576;BME280;41437;45.478;9.116;2023-03-01T07:36:57;100012.78;;;3.89;100.00
55576;BME280;41437;45.478;9.116;2023-03-01T07:40:01;100031.00;;;4.01;100.00
55576;BME280;41437;45.478;9.116;2023-03-01T07:43:02;100033.50;;;4.03;100.00
55576;BME280;41437;45.478;9.116;2023-03-01T07:46:04;100034.72;;;4.14;100.00
55576;BME280;41437;45.478;9.116;2023-03-01T07:49:07;100037.66;;;4.19;100.00
55576;BME280;41437;45.478;9.116;2023-03-01T07:52:12;100020.19;;;4.33;100.00
55576;BME280;41437;45.478;9.116;2023-03-01T07:55:14;100017.63;;;4.38;100.00
55576;BME280;41437;45.478;9.116;2023-03-01T07:58:16;100010.28;;;4.45;99.07
55576;BME280;41437;45.478;9.116;2023-03-01T08:01:20;100006.25;;;4.48;100.00
55576;BME280;41437;45.478;9.116;2023-03-01T08:04:23;100013.78;;;4.59;92.16
55576;BME280;41437;45.478;9.116;2023-03-01T08:07:25;100014.38;;;4.61;93.62
55576;BME280;41437;45.478;9.116;2023-03-01T08:10:26;100016.91;;;4.63;92.19
55576;BME280;41437;45.478;9.116;2023-03-01T08:13:28;100005.34;;;4.67;91.32
55576;BME280;41437;45.478;9.116;2023-03-01T08:16:30;100013.38;;;4.87;91.64
55576;BME280;41437;45.478;9.116;2023-03-01T08:19:34;100013.13;;;4.95;90.49
55576;BME280;41437;45.478;9.116;2023-03-01T08:22:35;100008.09;;;5.24;91.84
55576;BME280;41437;45.478;9.116;2023-03-01T08:25:37;99999.41;;;5.34;87.81
55576;BME280;41437;45.478;9.116;2023-03-01T08:28:42;100012.25;;;5.58;88.13
55576;BME280;41437;45.478;9.116;2023-03-01T08:31:46;99999.06;;;5.48;80.56
55576;BME280;41437;45.478;9.116;2023-03-01T08:34:48;100000.28;;;5.52;82.29
55576;BME280;41437;45.478;9.116;2023-03-01T08:37:50;100001.31;;;5.33;80.55
55576;BME280;41437;45.478;9.116;2023-03-01T08:40:51;99998.44;;;5.21;83.20
55576;BME280;41437;45.478;9.116;2023-03-01T08:43:53;99995.63;;;5.10;81.61
55576;BME280;41437;45.478;9.116;2023-03-01T08:46:58;99991.78;;;4.86;83.56
55576;BME280;41437;45.478;9.116;2023-03-01T08:50:02;99982.63;;;5.05;82.45
55576;BME280;41437;45.478;9.116;2023-03-01T08:53:03;99990.97;;;5.35;79.50
55576;BME280;41437;45.478;9.116;2023-03-01T08:56:05;99987.31;;;5.23;81.24
55576;BME280;41437;45.478;9.116;2023-03-01T08:59:09;99990.38;;;5.33;81.68
55576;BME280;41437;45.478;9.116;2023-03-01T09:02:13;99985.34;;;5.30;80.45
55576;BME280;41437;45.478;9.116;2023-03-01T09:05:16;99997.41;;;5.47;80.01
55576;BME280;41437;45.478;9.116;2023-03-01T09:08:18;99993.38;;;5.75;76.71
55576;BME280;41437;45.478;9.116;2023-03-01T09:11:21;99987.75;;;5.88;74.81
55576;BME280;41437;45.478;9.116;2023-03-01T09:14:24;99988.16;;;5.92;73.67
55576;BME280;41437;45.478;9.116;2023-03-01T09:17:26;99978.81;;;5.99;76.67
55576;BME280;41437;45.478;9.116;2023-03-01T09:20:45;99981.78;;;5.98;74.35
55576;BME280;41437;45.478;9.116;2023-03-01T09:23:48;99979.34;;;6.26;77.14
55576;BME280;41437;45.478;9.116;2023-03-01T09:26:53;99965.56;;;6.51;75.12
55576;BME280;41437;45.478;9.116;2023-03-01T09:29:55;99964.53;;;6.64;73.52
55576;BME280;41437;45.478;9.116;2023-03-01T09:32:57;99954.09;;;6.73;70.24
55576;BME280;41437;45.478;9.116;2023-03-01T09:36:02;99952.00;;;6.08;72.24
55576;BME280;41437;45.478;9.116;2023-03-01T09:39:04;99941.75;;;6.03;74.64
55576;BME280;41437;45.478;9.116;2023-03-01T09:42:11;99940.41;;;6.43;72.58
55576;BME280;41437;45.478;9.116;2023-03-01T09:45:23;99930.00;;;6.33;75.66
55576;BME280;41437;45.478;9.116;2023-03-01T09:48:27;99930.53;;;5.87;77.99
55576;BME280;41437;45.478;9.116;2023-03-01T09:51:37;99926.69;;;6.13;76.82
55576;BME280;41437;45.478;9.116;2023-03-01T09:54:38;99922.59;;;6.52;77.60
55576;BME280;41437;45.478;9.116;2023-03-01T09:57:47;99919.97;;;6.99;76.08
55576;BME280;41437;45.478;9.116;2023-03-01T10:00:50;99920.41;;;6.72;72.57
55576;BME280;41437;45.478;9.116;2023-03-01T10:04:03;99902.84;;;6.20;74.14
55576;BME280;41437;45.478;9.116;2023-03-01T10:07:21;99906.72;;;6.42;71.45
55576;BME280;41437;45.478;9.116;2023-03-01T10:10:29;99907.09;;;6.76;71.61
55576;BME280;41437;45.478;9.116;2023-03-01T10:13:40;99898.13;;;6.27;70.54
55576;BME280;41437;45.478;9.116;2023-03-01T10:16:48;99884.69;;;6.07;71.54
55576;BME280;41437;45.478;9.116;2023-03-01T10:19:52;99880.81;;;5.96;70.42
55576;BME280;41437;45.478;9.116;2023-03-01T10:22:55;99865.84;;;5.80;70.39
55576;BME280;41437;45.478;9.116;2023-03-01T10:26:12;99867.50;;;6.18;72.15
55576;BME280;41437;45.478;9.116;2023-03-01T10:29:22;99859.75;;;6.45;73.63
55576;BME280;41437;45.478;9.116;2023-03-01T10:32:26;99835.69;;;6.36;72.49
55576;BME280;41437;45.478;9.116;2023-03-01T10:35:32;99839.06;;;6.61;71.48
55576;BME280;41437;45.478;9.116;2023-03-01T10:38:49;99860.44;;;7.06;68.00
55576;BME280;41437;45.478;9.116;2023-03-01T10:42:00;99865.63;;;6.72;65.38
55576;BME280;41437;45.478;9.116;2023-03-01T10:45:16;99862.75;;;6.55;68.75
55576;BME280;41437;45.478;9.116;2023-03-01T10:48:20;99853.31;;;6.51;68.60
55576;BME280;41437;45.478;9.116;2023-03-01T10:51:24;99844.03;;;6.52;66.67
55576;BME280;41437;45.478;9.116;2023-03-01T10:54:29;99843.28;;;7.34;66.46
55576;BME280;41437;45.478;9.116;2023-03-01T10:57:36;99836.31;;;7.67;66.69
55576;BME280;41437;45.478;9.116;2023-03-01T11:00:47;99827.00;;;7.68;62.58
55576;BME280;41437;45.478;9.116;2023-03-01T11:04:09;99818.31;;;7.71;64.33
55576;BME280;41437;45.478;9.116;2023-03-01T11:07:11;99804.97;;;7.91;63.66
55576;BME280;41437;45.478;9.116;2023-03-01T11:10:17;99801.44;;;7.79;63.35
55576;BME280;41437;45.478;9.116;2023-03-01T11:13:19;99788.34;;;7.81;66.48
55576;BME280;41437;45.478;9.116;2023-03-01T11:16:34;99794.00;;;7.63;65.55
55576;BME280;41437;45.478;9.116;2023-03-01T11:19:36;99777.63;;;7.27;67.14
55576;BME280;41437;45.478;9.116;2023-03-01T11:22:43;99769.66;;;6.79;67.88
55576;BME280;41437;45.478;9.116;2023-03-01T11:25:53;99751.41;;;7.32;66.92
55576;BME280;41437;45.478;9.116;2023-03-01T11:29:00;99748.59;;;7.03;67.55
55576;BME280;41437;45.478;9.116;2023-03-01T11:32:06;99739.88;;;7.18;68.49
55576;BME280;41437;45.478;9.116;2023-03-01T11:35:16;99742.13;;;7.61;69.24
55576;BME280;41437;45.478;9.116;2023-03-01T11:38:22;99753.81;;;7.97;67.67
55576;BME280;41437;45.478;9.116;2023-03-01T11:41:30;99741.88;;;8.20;64.84
55576;BME280;41437;45.478;9.116;2023-03-01T11:44:34;99741.25;;;8.01;61.44
55576;BME280;41437;45.478;9.116;2023-03-01T11:47:48;99735.25;;;8.04;63.56
55576;BME280;41437;45.478;9.116;2023-03-01T11:50:57;99742.84;;;8.14;63.41
55576;BME280;41437;45.478;9.116;2023-03-01T11:54:09;99727.31;;;8.19;61.75
55576;BME280;41437;45.478;9.116;2023-03-01T11:57:22;99724.81;;;8.18;61.69
55576;BME280;41437;45.478;9.116;2023-03-01T12:00:48;99727.31;;;8.19;62.29
55576;BME280;41437;45.478;9.116;2023-03-01T12:04:16;99730.19;;;7.96;61.96
55576;BME280;41437;45.478;9.116;2023-03-01T12:07:30;99735.56;;;8.36;62.17
55576;BME280;41437;45.478;9.116;2023-03-01T12:10:44;99725.78;;;8.40;61.23
55576;BME280;41437;45.478;9.116;2023-03-01T12:14:16;99704.75;;;8.17;63.04
55576;BME280;41437;45.478;9.116;2023-03-01T12:17:34;99687.97;;;8.30;61.39
55576;BME280;41437;45.478;9.116;2023-03-01T12:20:44;99689.28;;;8.62;61.08
55576;BME280;41437;45.478;9.116;2023-03-01T12:24:13;99684.25;;;8.53;59.11
55576;BME280;41437;45.478;9.116;2023-03-01T12:27:38;99680.00;;;8.63;60.14
55576;BME280;41437;45.478;9.116;2023-03-01T12:34:41;99675.31;;;8.80;60.07
55576;BME280;41437;45.478;9.116;2023-03-01T12:37:54;99671.97;;;8.78;59.96
55576;BME280;41437;45.478;9.116;2023-03-01T12:41:11;99667.19;;;8.90;59.12
55576;BME280;41437;45.478;9.116;2023-03-01T12:44:31;99655.47;;;8.78;59.54
55576;BME280;41437;45.478;9.116;2023-03-01T12:51:50;99643.72;;;8.44;61.86
55576;BME280;41437;45.478;9.116;2023-03-01T12:54:55;99643.16;;;8.80;62.85
55576;BME280;41437;45.478;9.116;2023-03-01T12:58:09;99657.75;;;9.03;62.27
55576;BME280;41437;45.478;9.116;2023-03-01T13:01:35;99662.41;;;9.24;61.64
55576;BME280;41437;45.478;9.116;2023-03-01T13:04:52;99658.84;;;9.24;60.86
55576;BME280;41437;45.478;9.116;2023-03-01T13:08:05;99679.28;;;9.33;60.00
55576;BME280;41437;45.478;9.116;2023-03-01T13:11:14;99678.03;;;9.19;62.19
55576;BME280;41437;45.478;9.116;2023-03-01T13:14:44;99682.94;;;9.17;62.01
55576;BME280;41437;45.478;9.116;2023-03-01T13:17:48;99682.16;;;8.99;62.78
55576;BME280;41437;45.478;9.116;2023-03-01T13:20:51;99669.94;;;8.90;63.78
55576;BME280;41437;45.478;9.116;2023-03-01T13:23:54;99671.97;;;8.78;64.32
55576;BME280;41437;45.478;9.116;2023-03-01T13:27:23;99677.34;;;8.90;64.64
55576;BME280;41437;45.478;9.116;2023-03-01T13:30:40;99673.91;;;8.99;64.78
55576;BME280;41437;45.478;9.116;2023-03-01T13:33:44;99679.47;;;9.04;65.03
55576;BME280;41437;45.478;9.116;2023-03-01T13:36:48;99687.72;;;9.04;63.72
55576;BME280;41437;45.478;9.116;2023-03-01T13:39:52;99685.03;;;9.10;62.67
55576;BME280;41437;45.478;9.116;2023-03-01T13:42:55;99681.44;;;9.09;63.27
55576;BME280;41437;45.478;9.116;2023-03-01T13:45:59;99689.00;;;9.19;61.93
55576;BME280;41437;45.478;9.116;2023-03-01T13:49:04;99698.31;;;9.40;61.37
55576;BME280;41437;45.478;9.116;2023-03-01T13:52:27;99703.59;;;9.41;60.17
55576;BME280;41437;45.478;9.116;2023-03-01T13:55:48;99702.53;;;9.47;60.34
55576;BME280;41437;45.478;9.116;2023-03-01T13:58:59;99689.88;;;9.46;60.07
55576;BME280;41437;45.478;9.116;2023-03-01T14:02:33;99702.91;;;9.56;58.70
55576;BME280;41437;45.478;9.116;2023-03-01T14:05:42;99683.13;;;9.32;58.46
55576;BME280;41437;45.478;9.116;2023-03-01T14:09:03;99713.81;;;9.46;59.25
55576;BME280;41437;45.478;9.116;2023-03-01T14:12:43;99705.28;;;9.47;60.22
55576;BME280;41437;45.478;9.116;2023-03-01T14:15:57;99712.59;;;9.37;59.96
55576;BME280;41437;45.478;9.116;2023-03-01T14:19:15;99712.91;;;9.40;59.96
55576;BME280;41437;45.478;9.116;2023-03-01T14:22:23;99707.78;;;9.27;60.17
55576;BME280;41437;45.478;9.116;2023-03-01T14:25:27;99715.97;;;9.22;60.48
55576;BME280;41437;45.478;9.116;2023-03-01T14:28:42;99717.44;;;9.07;63.09
55576;BME280;41437;45.478;9.116;2023-03-01T14:31:44;99706.44;;;9.07;62.41
55576;BME280;41437;45.478;9.116;2023-03-01T14:34:49;99708.03;;;9.03;62.97
55576;BME280;41437;45.478;9.116;2023-03-01T14:37:52;99713.97;;;8.95;62.78
55576;BME280;41437;45.478;9.116;2023-03-01T14:40:57;99710.88;;;8.92;63.94
55576;BME280;41437;45.478;9.116;2023-03-01T14:44:03;99712.56;;;8.93;63.83
55576;BME280;41437;45.478;9.116;2023-03-01T14:47:10;99680.06;;;8.68;64.21
55576;BME280;41437;45.478;9.116;2023-03-01T14:50:21;99715.41;;;8.81;64.47
55576;BME280;41437;45.478;9.116;2023-03-01T14:53:26;99705.13;;;8.71;64.45
55576;BME280;41437;45.478;9.116;2023-03-01T14:56:43;99707.75;;;8.66;64.51
55576;BME280;41437;45.478;9.116;2023-03-01T14:59:46;99704.22;;;8.49;65.94
55576;BME280;41437;45.478;9.116;2023-03-01T15:02:50;99698.44;;;8.34;67.58
55576;BME280;41437;45.478;9.116;2023-03-01T15:05:52;99696.59;;;8.22;68.36
55576;BME280;41437;45.478;9.116;2023-03-01T15:08:55;99695.13;;;8.15;69.53
55576;BME280;41437;45.478;9.116;2023-03-01T15:11:57;99697.53;;;8.11;69.38
55576;BME280;41437;45.478;9.116;2023-03-01T15:15:00;99701.09;;;8.12;69.29
55576;BME280;41437;45.478;9.116;2023-03-01T15:18:05;99702.69;;;8.07;70.16
55576;BME280;41437;45.478;9.116;2023-03-01T15:21:13;99706.09;;;7.98;70.23
55576;BME280;41437;45.478;9.116;2023-03-01T15:24:19;99703.34;;;7.98;70.59
55576;BME280;41437;45.478;9.116;2023-03-01T15:27:23;99707.75;;;7.99;70.59
55576;BME280;41437;45.478;9.116;2023-03-01T15:30:29;99710.75;;;7.97;70.96
55576;BME280;41437;45.478;9.116;2023-03-01T15:33:36;99713.47;;;7.97;70.14
55576;BME280;41437;45.478;9.116;2023-03-01T15:36:42;99711.06;;;7.84;69.60
55576;BME280;41437;45.478;9.116;2023-03-01T15:39:53;99712.84;;;7.78;70.84
55576;BME280;41437;45.478;9.116;2023-03-01T15:42:55;99717.59;;;7.83;71.09
55576;BME280;41437;45.478;9.116;2023-03-01T15:45:58;99700.69;;;7.74;72.10
55576;BME280;41437;45.478;9.116;2023-03-01T15:49:04;99706.69;;;7.71;71.01
55576;BME280;41437;45.478;9.116;2023-03-01T15:52:11;99705.56;;;7.55;71.36
55576;BME280;41437;45.478;9.116;2023-03-01T15:55:18;99689.16;;;7.44;72.82
55576;BME280;41437;45.478;9.116;2023-03-01T15:58:23;99724.75;;;7.55;73.55
55576;BME280;41437;45.478;9.116;2023-03-01T16:01:26;99725.22;;;7.52;72.46
55576;BME280;41437;45.478;9.116;2023-03-01T16:04:27;99709.16;;;7.44;72.93
55576;BME280;41437;45.478;9.116;2023-03-01T16:07:29;99721.72;;;7.40;73.22
55576;BME280;41437;45.478;9.116;2023-03-01T16:10:31;99728.75;;;7.36;74.26
55576;BME280;41437;45.478;9.116;2023-03-01T16:13:34;99736.38;;;7.34;74.13
55576;BME280;41437;45.478;9.116;2023-03-01T16:16:37;99728.63;;;7.31;74.42
55576;BME280;41437;45.478;9.116;2023-03-01T16:19:41;99746.34;;;7.52;74.47
55576;BME280;41437;45.478;9.116;2023-03-01T16:22:43;99745.59;;;7.56;72.85
55576;BME280;41437;45.478;9.116;2023-03-01T16:25:45;99740.13;;;7.56;73.25
55576;BME280;41437;45.478;9.116;2023-03-01T16:28:46;99747.28;;;7.58;72.35
55576;BME280;41437;45.478;9.116;2023-03-01T16:31:51;99759.81;;;7.53;73.06
55576;BME280;41437;45.478;9.116;2023-03-01T16:34:52;99760.31;;;7.50;73.68